Latest Coastal Weather Observations for Port Augusta

IDS60701

Issued at 4:31 am CDT Tuesday 28 February 2017 (issued every 10 minutes, with the page automatically refreshed every 10 minutes)

About coastal observations | Map of coastal stations | Coastal observations for SA | Marine services | Other Formats
Station Details ID: 018201 Name: PORT AUGUSTA AERO Lat: -32.51 Lon: 137.72 Height: 13.97 m
Data from the previous 72 hours. | See also: Recent months at Port Augusta
Date/Time
CDT
Temp
°C
Wind Pressure Rain since
9am
mm
Weather Cloud Vis
km
Sea
Height
m
Swell
Dir  Spd
kts
Gust
kts
hPa Trend Height
m
Period
s
Dir
28/04:30am 21.3 SE 7 7 1014.0 - - - - 56 - - - -
28/04:00am 20.9 ESE 8 10 1014.0 - 0.0 - - 10 - - - -
28/03:30am 22.4 ESE 10 12 1014.0 - 0.0 - - 10 - - - -
28/03:00am 23.5 SE 10 15 1014.0 - 0.0 - - 10 - - - -
28/02:30am 24.3 SE 12 16 1014.1 - 0.0 - Partly cloudy 10 - - - -
28/02:00am 24.6 SE 14 17 1014.4 - 0.0 - Cloudy 10 - - - -
28/01:30am 24.7 SE 6 8 1014.6 - 0.0 - Partly cloudy 10 - - - -
28/01:00am 25.5 SSE 11 14 1014.5 - 0.0 - - 10 - - - -
28/12:30am 25.5 SSE 9 13 1014.5 - 0.0 - - 10 - - - -
28/12:00am 24.9 SSW 6 9 1014.6 - 0.0 - - 10 - - - -
 
Date/Time
CDT
Temp
°C
Wind Pressure Rain since
9am
mm
Weather Cloud Vis
km
Sea
Height
m
Swell
Dir  Spd
kts
Gust
kts
hPa Trend Height
m
Period
s
Dir
27/11:30pm 25.0 SSW 4 8 1014.9 - 0.0 - - 10 - - - -
27/11:00pm 25.5 S 11 15 1014.9 - 0.0 - - 10 - - - -
27/10:30pm 25.3 SSE 11 15 1014.9 - 0.0 - - 10 - - - -
27/10:00pm 25.7 SE 14 17 1014.8 - 0.0 - - 10 - - - -
27/09:30pm 26.6 SE 17 21 1014.2 - 0.0 - - 10 - - - -
27/09:00pm 26.4 SE 18 24 1013.7 - 0.0 - - 10 - - - -
27/08:30pm 26.8 SE 15 19 1013.7 - 0.0 - - 10 - - - -
27/08:00pm 26.3 SE 18 25 1013.5 - 0.0 - - 10 - - - -
27/07:30pm 25.8 SE 17 23 1013.2 - 0.0 - - 10 - - - -
27/07:00pm 26.7 SE 17 23 1013.0 - 0.0 - - 10 - - - -
27/06:30pm 28.5 SE 17 24 1012.9 - 0.0 - - 10 - - - -
27/06:00pm 30.7 SE 17 25 1012.7 - 0.0 - - 10 - - - -
27/05:30pm 30.9 SE 19 23 1012.6 - 0.0 - - 10 - - - -
27/05:00pm 30.2 SE 18 23 1012.9 - 0.0 - - 10 - - - -
27/04:30pm 31.6 SE 16 21 1012.9 - 0.0 - - 10 - - - -
27/04:00pm 31.1 SE 14 19 1013.3 - 0.0 - - 10 - - - -
27/03:30pm 32.6 SE 9 13 1013.6 - 0.0 - - 10 - - - -
27/03:00pm 32.2 SE 11 15 1014.1 - 0.0 - - 10 - - - -
27/02:30pm 31.9 SE 11 15 1014.5 - 0.0 - - 10 - - - -
27/02:00pm 32.7 ESE 9 12 1014.9 - 0.0 - - 10 - - - -
27/01:30pm 32.3 ESE 8 11 1015.2 - 0.0 - - 10 - - - -
27/01:00pm 31.7 ESE 8 11 1015.5 - 0.0 - - 10 - - - -
27/12:30pm 30.9 SE 8 12 1015.9 - 0.0 - - 10 - - - -
27/12:00pm 30.0 ESE 10 13 1016.3 - 0.0 - - 10 - - - -
27/11:30am 28.7 SE 11 13 1016.6 - 0.0 - - 10 - - - -
27/11:00am 28.4 ESE 8 10 1016.6 - 0.0 - - 10 - - - -
27/10:30am 26.7 SE 7 9 1016.9 - 0.0 - - 10 - - - -
27/10:00am 25.2 ESE 8 10 1016.8 - 0.0 - - 10 - - - -
27/09:30am 23.9 ESE 9 11 1016.8 - 0.0 - - 10 - - - -
27/09:00am 22.6 NE 3 6 1017.1 - 0.0 - - 10 - - - -
27/08:30am 19.6 NW 3 4 1017.1 - 0.0 - - 10 - - - -
27/08:00am 16.9 NW 4 5 1016.9 - 0.0 - - 10 - - - -
27/07:30am 14.0 CALM 0 3 1016.7 - 0.0 - - 10 - - - -
27/07:00am 15.6 SE 5 6 1016.5 - 0.0 - - 10 - - - -
27/06:30am 13.5 SE 3 4 1016.5 - 0.0 - - 10 - - - -
27/06:00am 14.3 NE 4 5 1016.4 - 0.0 - - 10 - - - -
27/05:30am 14.5 CALM 0 0 1016.1 - 0.0 - - 10 - - - -
27/05:00am 13.9 NNW 3 4 1016.0 - 0.0 - - 10 - - - -
27/04:30am 15.3 CALM 0 0 1016.0 - 0.0 - - 10 - - - -
27/04:00am 16.1 SW 4 6 1016.0 - 0.0 - - 10 - - - -
27/03:30am 16.0 WSW 3 5 1016.2 - 0.0 - - 10 - - - -
27/03:00am 19.1 SSE 5 7 1016.3 - 0.0 - - 10 - - - -
27/02:30am 18.1 SSW 5 7 1016.5 - 0.0 - - 10 - - - -
27/02:00am 20.0 SSE 5 7 1016.6 - 0.0 - - 10 - - - -
27/01:30am 19.9 SE 4 6 1016.8 - 0.0 - - 10 - - - -
27/01:00am 20.3 S 7 10 1016.8 - 0.0 - - 10 - - - -
27/12:30am 21.8 SE 13 17 1016.5 - 0.0 - - 10 - - - -
27/12:00am 21.7 SSE 10 14 1016.7 - 0.0 - - 10 - - - -
 
Date/Time
CDT
Temp
°C
Wind Pressure Rain since
9am
mm
Weather Cloud Vis
km
Sea
Height
m
Swell
Dir  Spd
kts
Gust
kts
hPa Trend Height
m
Period
s
Dir
26/11:30pm 21.4 SSE 8 12 1017.0 - 0.0 - - 10 - - - -
26/11:00pm 21.3 SE 7 9 1017.1 - 0.0 - - 10 - - - -
26/10:30pm 21.6 SSE 6 9 1017.2 - 0.0 - - 10 - - - -
26/10:00pm 20.9 SSE 11 14 1017.0 - 0.0 - - 10 - - - -
26/09:30pm 21.5 SE 14 19 1016.5 - 0.0 - - 10 - - - -
26/09:00pm 21.6 SE 15 21 1016.1 - 0.0 - - 10 - - - -
26/08:30pm 21.8 SE 14 18 1015.8 - 0.0 - - 10 - - - -
26/08:00pm 22.4 SE 14 19 1015.4 - 0.0 - - 10 - - - -
26/07:30pm 23.9 SE 12 17 1015.1 - 0.0 - - 10 - - - -
26/07:00pm 27.2 SE 15 20 1014.9 - 0.0 - - 10 - - - -
26/06:30pm 27.4 SE 17 21 1014.7 - 0.0 - - 10 - - - -
26/06:00pm 28.0 SSE 17 20 1014.8 - 0.0 - - 10 - - - -
26/05:30pm 28.5 SE 16 20 1014.8 - 0.0 - - 10 - - - -
26/05:00pm 29.3 SE 14 19 1014.8 - 0.0 - - 10 - - - -
26/04:30pm 29.4 SE 13 16 1014.8 - 0.0 - - 10 - - - -
26/04:00pm 30.1 SE 9 17 1015.0 - 0.0 - - 10 - - - -
26/03:30pm 30.3 SE 9 13 1015.3 - 0.0 - - 10 - - - -
26/03:00pm 30.4 SE 9 14 1015.7 - 0.0 - - 10 - - - -
26/02:30pm 30.6 ENE 5 12 1016.2 - 0.0 - - 10 - - - -
26/02:00pm 29.4 E 5 8 1016.6 - 0.0 - - 10 - - - -
26/01:30pm 27.8 SSE 5 9 1016.9 - 0.0 - - 10 - - - -
26/01:00pm 28.4 WSW 5 7 1017.2 - 0.0 - - 10 - - - -
26/12:30pm 27.1 SE 7 9 1017.7 - 0.0 - - 10 - - - -
26/12:00pm 26.3 SE 7 12 1017.8 - 0.0 - - 10 - - - -
26/11:30am 25.3 SE 6 9 1018.2 - 0.0 - - 10 - - - -
26/11:00am 24.7 SE 8 10 1018.5 - 0.0 - - 10 - - - -
26/10:30am 22.9 SE 9 15 1018.7 - 0.0 - - 10 - - - -
26/10:00am 21.4 SE 11 15 1018.9 - 0.0 - - 10 - - - -
26/09:30am 21.0 SE 10 14 1019.0 - 0.0 - - 10 - - - -
26/09:00am 20.4 SE 10 15 1019.1 - 0.0 - - 10 - - - -
26/08:30am 19.5 SE 10 14 1018.9 - 0.0 - - 10 - - - -
26/08:00am 17.5 WSW 3 4 1018.8 - 0.0 - - 10 - - - -
26/07:30am 16.5 SSE 6 10 1018.7 - 0.0 - - 10 - - - -
26/07:00am 13.9 WNW 4 8 1018.4 - 0.0 - - 10 - - - -
26/06:30am 14.4 SSW 4 6 1018.1 - 0.0 - - 10 - - - -
26/06:00am 15.8 S 7 9 1017.9 - 0.0 - - 10 - - - -
26/05:30am 15.4 S 6 9 1017.5 - 0.0 - - 10 - - - -
26/05:00am 14.5 SSW 7 10 1017.5 - 0.0 - - 10 - - - -
26/04:30am 14.5 SSW 4 6 1017.6 - 0.0 - - 10 - - - -
26/04:00am 15.6 S 6 8 1017.8 - 0.0 - - 10 - - - -
26/03:30am 15.6 S 3 5 1018.0 - 0.0 - - 10 - - - -
26/03:00am 15.7 SSE 7 9 1018.1 - 0.0 - - 10 - - - -
26/02:30am 16.6 SSE 8 10 1018.4 - 0.0 - - 10 - - - -
26/02:00am 17.0 S 4 5 1018.7 - 0.0 - - 10 - - - -
26/01:30am 16.8 S 4 5 1018.9 - 0.0 - - 10 - - - -
26/01:00am 17.4 S 4 5 1019.2 - 0.0 - - 10 - - - -
26/12:30am 18.0 NW 3 7 1019.5 - 0.0 - - 10 - - - -
26/12:00am 18.4 S 10 14 1019.7 - 0.0 - - 10 - - - -
 
Date/Time
CDT
Temp
°C
Wind Pressure Rain since
9am
mm
Weather Cloud Vis
km
Sea
Height
m
Swell
Dir  Spd
kts
Gust
kts
hPa Trend Height
m
Period
s
Dir
25/11:30pm 18.7 SSE 14 20 1019.6 - 0.0 - - 10 - - - -
25/11:00pm 18.9 SE 17 23 1019.5 - 0.0 - - 10 - - - -
25/10:30pm 19.5 SE 19 26 1019.5 - 0.0 - - 10 - - - -
25/10:00pm 20.1 SE 18 22 1019.3 - 0.0 - - 10 - - - -
25/09:30pm 20.6 SSE 17 22 1019.3 - 0.0 - - 10 - - - -
25/09:00pm 21.3 SSE 19 25 1019.0 - 0.0 - - 10 - - - -
25/08:30pm 21.7 S 17 24 1018.7 - 0.0 - - 10 - - - -
25/08:00pm 22.5 S 17 22 1018.5 - 0.0 - - 10 - - - -
25/07:30pm 23.9 S 15 23 1018.4 - 0.0 - - 10 - - - -
25/07:00pm 24.9 SSE 18 22 1018.3 - 0.0 - - 10 - - - -
25/06:30pm 25.8 SSE 18 23 1018.2 - 0.0 - - 10 - - - -
25/06:00pm 26.6 SSE 19 23 1018.2 - 0.0 - - 10 - - - -
25/05:30pm 26.9 SSE 19 25 1018.1 - 0.0 - - 10 - - - -
25/05:00pm 27.8 SSE 18 24 1018.3 - 0.0 - - 10 - - - -
25/04:30pm 28.1 SSE 18 23 1018.5 - 0.0 - - 10 - - - -
25/04:00pm 27.3 SSE 17 22 1018.9 - 0.0 - - 10 - - - -
25/03:30pm 27.5 SSE 15 24 1019.1 - 0.0 - - 10 - - - -
25/03:00pm 26.8 SSE 14 21 1019.7 - 0.0 - - 10 - - - -
25/02:30pm 26.7 SSE 14 21 1020.2 - 0.0 - - 10 - - - -
25/02:00pm 26.1 SSE 13 20 1020.8 - 0.0 - - 10 - - - -
25/01:30pm 25.9 SSE 13 19 1021.2 - 0.0 - - 10 - - - -
25/01:00pm 25.7 S 12 18 1021.5 - 0.0 - - 10 - - - -
25/12:30pm 24.8 SE 12 18 1021.9 - 0.0 - - 10 - - - -
25/12:00pm 24.1 SSE 11 17 1022.4 - 0.0 - - 10 - - - -
25/11:30am 22.5 SSE 11 15 1022.6 - 0.0 - - 10 - - - -
25/11:00am 22.1 SSE 10 15 1022.7 - 0.0 - - 10 - - - -
25/10:30am 20.9 SSE 12 17 1022.8 - 0.0 - - 10 - - - -
25/10:00am 20.2 SSE 17 22 1022.9 - 0.0 - - 10 - - - -
25/09:30am 19.2 SSE 16 21 1022.8 - 0.0 - - 10 - - - -
25/09:00am 18.4 SSE 19 23 1022.9 - 0.0 - - 10 - - - -
25/08:30am 18.0 SSE 17 22 1022.8 - 0.0 - - 10 - - - -
25/08:00am 17.1 S 11 15 1022.6 - 0.0 - - 10 - - - -
25/07:30am 14.4 SW 6 8 1022.5 - 0.0 - - 10 - - - -
25/07:00am 15.5 S 10 14 1022.2 - 0.0 - - 10 - - - -
25/06:30am 15.8 SSE 13 16 1022.0 - 0.0 - - 10 - - - -
25/06:00am 15.6 SSE 13 17 1021.8 - 0.0 - - 10 - - - -
25/05:30am 15.7 S 12 15 1022.0 - 0.0 - - 10 - - - -
25/05:00am 15.2 S 11 15 1022.0 - 0.0 - - 10 - - - -

Other Formats:

Comma delimited format used in spreadsheet applications
http://www.bom.gov.au/fwo/IDS60701/IDS60701.95666.axf

JavaScript Object Notation format (JSON) in row-major order
http://www.bom.gov.au/fwo/IDS60701/IDS60701.95666.json